createdAt,value
2023-04-11T00:00:51.848Z,79.35
2023-04-11T00:01:55.110Z,79.11
2023-04-11T00:02:57.454Z,79.27
2023-04-11T00:03:59.713Z,79.52
2023-04-11T00:05:01.923Z,79.61
2023-04-11T00:06:07.765Z,79.79
2023-04-11T00:07:09.776Z,79.96
2023-04-11T00:08:11.827Z,80.15
2023-04-11T00:09:13.715Z,80.41
2023-04-11T00:10:18.321Z,80.41
2023-04-11T00:11:20.245Z,80.21
2023-04-11T00:12:22.135Z,80.30
2023-04-11T00:13:24.031Z,80.08
2023-04-11T00:14:26.090Z,79.92
2023-04-11T00:15:30.944Z,80.08
2023-04-11T00:16:33.179Z,80.09
2023-04-11T00:17:36.224Z,80.57
2023-04-11T00:18:38.222Z,80.61
2023-04-11T00:19:40.112Z,80.48
2023-04-11T00:20:42.554Z,80.45
2023-04-11T00:21:44.576Z,80.53
2023-04-11T00:22:46.515Z,80.37
2023-04-11T00:23:48.381Z,80.30
2023-04-11T00:24:50.267Z,79.86
2023-04-11T00:25:52.227Z,79.73
2023-04-11T00:26:55.705Z,79.50
2023-04-11T00:27:57.976Z,79.47
2023-04-11T00:28:59.854Z,79.35
2023-04-11T00:30:04.048Z,79.18
2023-04-11T00:31:06.711Z,78.70
2023-04-11T00:32:08.738Z,78.73
2023-04-11T00:33:10.861Z,78.59
2023-04-11T00:34:13.199Z,78.82
2023-04-11T00:35:15.906Z,78.91
2023-04-11T00:36:18.201Z,78.52
2023-04-11T00:37:21.953Z,78.52
2023-04-11T00:38:25.262Z,78.56
2023-04-11T00:39:27.644Z,78.54
2023-04-11T00:40:30.925Z,78.32
2023-04-11T00:41:32.936Z,78.33
2023-04-11T00:42:34.796Z,78.33
2023-04-11T00:43:37.261Z,78.12
2023-04-11T00:44:39.130Z,78.02
2023-04-11T00:45:42.430Z,78.37
2023-04-11T00:46:46.262Z,78.18
2023-04-11T00:47:50.812Z,78.03
2023-04-11T00:48:53.865Z,77.94
2023-04-11T00:49:55.946Z,78.29
2023-04-11T00:50:58.717Z,78.16
2023-04-11T00:52:02.343Z,78.08
2023-04-11T00:53:04.703Z,77.79
2023-04-11T00:54:06.831Z,77.93
2023-04-11T00:55:09.603Z,77.88
2023-04-11T00:56:11.969Z,77.86
2023-04-11T00:57:14.692Z,78.17
2023-04-11T00:58:17.306Z,78.22
2023-04-11T00:59:20.001Z,78.22
2023-04-11T01:00:23.472Z,78.18
2023-04-11T01:01:25.638Z,78.09
2023-04-11T01:02:27.777Z,78.07
2023-04-11T01:03:30.376Z,78.05
2023-04-11T01:04:32.525Z,77.85
2023-04-11T01:05:35.319Z,78.00
2023-04-11T01:06:38.030Z,78.04
2023-04-11T01:07:42.604Z,78.10
2023-04-11T01:08:46.408Z,77.76
2023-04-11T01:09:49.305Z,78.00
2023-04-11T01:10:52.524Z,78.05
2023-04-11T01:11:56.795Z,77.92
2023-04-11T01:13:01.282Z,77.63
2023-04-11T01:14:04.834Z,77.72
2023-04-11T01:15:07.688Z,77.60
2023-04-11T01:16:10.616Z,77.78
2023-04-11T01:17:13.870Z,77.72
2023-04-11T01:18:15.735Z,77.61
2023-04-11T01:19:19.650Z,77.64
2023-04-11T01:20:22.140Z,77.90
2023-04-11T01:21:26.486Z,77.76
2023-04-11T01:22:29.412Z,77.62
2023-04-11T01:23:31.711Z,77.94
2023-04-11T01:24:33.866Z,78.08
2023-04-11T01:25:35.773Z,78.23
2023-04-11T01:26:39.631Z,78.21
2023-04-11T01:27:42.685Z,78.38
2023-04-11T01:28:45.822Z,78.48
2023-04-11T01:29:48.163Z,78.42
2023-04-11T01:30:51.247Z,78.37
2023-04-11T01:31:53.362Z,78.31
2023-04-11T01:32:55.371Z,78.16
2023-04-11T01:33:59.973Z,78.04
2023-04-11T01:35:04.656Z,78.59
2023-04-11T01:36:08.683Z,78.59
2023-04-11T01:37:11.292Z,78.57
2023-04-11T01:38:13.172Z,78.80
2023-04-11T01:39:15.159Z,78.69
2023-04-11T01:40:18.740Z,78.45
2023-04-11T01:41:22.972Z,78.40
2023-04-11T01:42:26.324Z,78.44
2023-04-11T01:43:28.485Z,78.40
2023-04-11T01:44:32.061Z,78.59
2023-04-11T01:45:35.723Z,78.58
2023-04-11T01:46:41.721Z,78.43
2023-04-11T01:47:47.443Z,78.31
2023-04-11T01:48:52.018Z,78.26
2023-04-11T01:49:54.117Z,78.38
2023-04-11T01:50:56.403Z,78.38
2023-04-11T01:52:00.673Z,78.52
2023-04-11T01:53:03.567Z,78.47
2023-04-11T01:54:05.465Z,78.21
2023-04-11T01:55:08.278Z,78.42
2023-04-11T01:56:12.156Z,78.34
2023-04-11T01:57:14.636Z,77.96
2023-04-11T01:58:16.519Z,77.84
2023-04-11T01:59:18.473Z,77.62
2023-04-11T02:00:21.826Z,77.68
2023-04-11T02:01:24.945Z,78.12
2023-04-11T02:02:27.073Z,78.06
2023-04-11T02:03:29.236Z,78.14
2023-04-11T02:04:31.405Z,78.24
2023-04-11T02:05:33.272Z,78.13
2023-04-11T02:06:35.336Z,77.90
2023-04-11T02:07:38.302Z,77.82
2023-04-11T02:08:40.277Z,77.96
2023-04-11T02:09:42.163Z,77.69
2023-04-11T02:10:44.303Z,77.73
2023-04-11T02:11:46.183Z,77.85
2023-04-11T02:12:48.152Z,77.84
2023-04-11T02:13:50.015Z,77.89
2023-04-11T02:14:51.891Z,78.01
2023-04-11T02:15:53.821Z,77.80
2023-04-11T02:16:55.926Z,77.71
2023-04-11T02:17:58.475Z,77.48
2023-04-11T02:19:01.111Z,77.52
2023-04-11T02:20:04.333Z,77.39
2023-04-11T02:21:07.024Z,77.09
2023-04-11T02:22:09.022Z,77.11
2023-04-11T02:23:10.912Z,77.13
2023-04-11T02:24:13.183Z,76.92
2023-04-11T02:25:15.549Z,76.54
2023-04-11T02:26:17.697Z,76.53
2023-04-11T02:27:19.657Z,76.44
2023-04-11T02:28:21.540Z,76.53
2023-04-11T02:29:23.498Z,76.52
2023-04-11T02:30:25.636Z,76.75
2023-04-11T02:31:27.646Z,76.77
2023-04-11T02:32:29.692Z,76.78
2023-04-11T02:33:31.681Z,77.09
2023-04-11T02:34:33.741Z,76.75
2023-04-11T02:35:35.661Z,76.45
2023-04-11T02:36:38.228Z,76.35
2023-04-11T02:37:40.328Z,76.32
2023-04-11T02:38:42.368Z,76.23
2023-04-11T02:39:44.535Z,75.81
2023-04-11T02:40:47.173Z,75.95
2023-04-11T02:41:49.988Z,75.74
2023-04-11T02:42:51.873Z,75.64
2023-04-11T02:43:54.531Z,75.54
2023-04-11T02:44:56.418Z,75.63
2023-04-11T02:46:09.493Z,75.72
2023-04-11T02:47:02.569Z,75.52
2023-04-11T02:48:05.216Z,75.80
2023-04-11T02:49:07.745Z,76.06
2023-04-11T02:50:10.897Z,75.89
2023-04-11T02:51:13.888Z,75.76
2023-04-11T02:52:17.423Z,75.52
2023-04-11T02:53:19.625Z,75.30
2023-04-11T02:54:21.611Z,75.29
2023-04-11T02:55:23.545Z,75.21
2023-04-11T02:56:25.915Z,75.08
2023-04-11T02:57:27.846Z,75.33
2023-04-11T02:58:29.771Z,75.34
2023-04-11T02:59:31.810Z,75.29
2023-04-11T03:00:34.245Z,75.48
2023-04-11T03:01:36.223Z,75.53
2023-04-11T03:02:38.411Z,75.67
2023-04-11T03:03:40.710Z,75.55
2023-04-11T03:04:42.739Z,76.10
2023-04-11T03:05:46.225Z,75.41
2023-04-11T03:06:48.377Z,75.28
2023-04-11T03:07:50.551Z,75.18
2023-04-11T03:08:52.517Z,75.33
2023-04-11T03:09:54.652Z,75.26
2023-04-11T03:10:56.835Z,75.68
2023-04-11T03:11:58.893Z,75.55
2023-04-11T03:13:01.021Z,75.60
2023-04-11T03:14:03.216Z,75.59
2023-04-11T03:15:06.410Z,75.59
2023-04-11T03:16:09.066Z,75.66
2023-04-11T03:17:11.040Z,75.77
2023-04-11T03:18:13.034Z,76.12
2023-04-11T03:19:14.990Z,75.80
2023-04-11T03:20:17.998Z,75.90
2023-04-11T03:21:19.965Z,75.77
2023-04-11T03:22:21.849Z,75.79
2023-04-11T03:23:23.725Z,75.71
2023-04-11T03:24:26.339Z,75.60
2023-04-11T03:25:28.206Z,75.71
2023-04-11T03:26:30.250Z,75.59
2023-04-11T03:27:32.138Z,75.46
2023-04-11T03:28:34.194Z,75.46
2023-04-11T03:29:36.150Z,75.61
2023-04-11T03:30:39.966Z,75.47
2023-04-11T03:31:41.924Z,75.20
2023-04-11T03:32:44.481Z,75.44
2023-04-11T03:33:46.690Z,75.21
2023-04-11T03:34:50.628Z,75.11
2023-04-11T03:35:52.551Z,75.04
2023-04-11T03:36:54.633Z,74.89
2023-04-11T03:37:56.486Z,74.94
2023-04-11T03:38:58.463Z,74.58
2023-04-11T03:40:01.819Z,74.33
2023-04-11T03:41:04.189Z,74.34
2023-04-11T03:42:06.058Z,74.29
2023-04-11T03:43:07.933Z,74.07
2023-04-11T03:44:10.144Z,74.16
2023-04-11T03:45:12.063Z,74.20
2023-04-11T03:46:14.572Z,74.48
2023-04-11T03:47:16.472Z,74.54
2023-04-11T03:48:19.993Z,74.57
2023-04-11T03:49:22.324Z,74.06
2023-04-11T03:50:24.688Z,74.12
2023-04-11T03:51:26.577Z,73.87
2023-04-11T03:52:29.238Z,73.76
2023-04-11T03:53:31.130Z,73.66
2023-04-11T03:54:33.293Z,73.57
2023-04-11T03:55:35.700Z,73.56
2023-04-11T03:56:38.021Z,73.63
2023-04-11T03:57:39.993Z,73.47
2023-04-11T03:58:41.879Z,73.53
2023-04-11T03:59:43.766Z,73.50
2023-04-11T04:00:47.218Z,73.46
2023-04-11T04:01:49.177Z,73.32
2023-04-11T04:02:51.316Z,73.25
2023-04-11T04:03:53.886Z,73.27
2023-04-11T04:04:56.199Z,73.14
2023-04-11T04:05:58.243Z,73.30
2023-04-11T04:07:00.615Z,72.97
2023-04-11T04:08:02.507Z,73.21
2023-04-11T04:09:04.524Z,73.15
2023-04-11T04:10:07.728Z,72.93
2023-04-11T04:11:09.718Z,73.18
2023-04-11T04:12:11.702Z,73.34
2023-04-11T04:13:13.566Z,73.35
2023-04-11T04:14:16.357Z,73.31
2023-04-11T04:15:18.346Z,73.35
2023-04-11T04:16:20.415Z,73.31
2023-04-11T04:17:23.381Z,73.03
2023-04-11T04:18:25.579Z,72.75
2023-04-11T04:19:27.547Z,72.71
2023-04-11T04:20:30.406Z,72.58
2023-04-11T04:21:32.539Z,72.47
2023-04-11T04:22:34.774Z,71.89
2023-04-11T04:23:38.690Z,71.72
2023-04-11T04:24:41.094Z,71.59
2023-04-11T04:25:52.095Z,71.66
2023-04-11T04:26:55.394Z,71.52
2023-04-11T04:27:57.391Z,71.35
2023-04-11T04:28:59.356Z,71.44
2023-04-11T04:30:03.730Z,71.22
2023-04-11T04:31:06.413Z,71.22
2023-04-11T04:32:08.559Z,70.82
2023-04-11T04:33:11.137Z,71.12
2023-04-11T04:34:13.159Z,70.77
2023-04-11T04:35:15.317Z,70.53
2023-04-11T04:36:17.403Z,70.69
2023-04-11T04:37:19.452Z,70.47
2023-04-11T04:38:21.446Z,70.23
2023-04-11T04:39:23.490Z,70.35
2023-04-11T04:40:25.491Z,69.72
2023-04-11T04:41:27.571Z,69.51
2023-04-11T04:42:29.669Z,69.01
2023-04-11T04:43:32.441Z,69.05
2023-04-11T04:44:34.672Z,68.55
2023-04-11T04:45:36.777Z,68.55
2023-04-11T04:46:38.936Z,68.16
2023-04-11T04:47:41.566Z,67.85
2023-04-11T04:48:44.506Z,67.70
2023-04-11T04:49:46.404Z,67.14
2023-04-11T04:50:48.507Z,66.82
2023-04-11T04:51:50.500Z,66.70
2023-04-11T04:52:52.358Z,66.29
2023-04-11T04:53:54.644Z,66.05
2023-04-11T04:54:57.663Z,66.19
2023-04-11T04:56:00.768Z,65.94
2023-04-11T04:57:04.381Z,65.67
2023-04-11T04:58:06.297Z,65.25
2023-04-11T04:59:08.210Z,64.60
2023-04-11T05:00:12.086Z,64.84
2023-04-11T05:01:15.297Z,64.58
2023-04-11T05:02:17.389Z,63.73
2023-04-11T05:03:19.536Z,63.85
2023-04-11T05:04:21.836Z,64.02
2023-04-11T05:05:23.886Z,63.94
2023-04-11T05:06:27.129Z,63.66
2023-04-11T05:07:29.519Z,62.92
2023-04-11T05:08:31.417Z,63.15
2023-04-11T05:09:33.375Z,62.88
2023-04-11T05:10:35.577Z,62.83
2023-04-11T05:11:37.833Z,62.52
2023-04-11T05:12:39.786Z,62.03
2023-04-11T05:13:41.635Z,61.59
2023-04-11T05:14:43.523Z,61.34
2023-04-11T05:15:49.343Z,60.86
2023-04-11T05:16:51.489Z,60.87
2023-04-11T05:17:53.582Z,60.86
2023-04-11T05:18:55.611Z,61.04
2023-04-11T05:19:57.469Z,60.61
2023-04-11T05:21:00.905Z,59.75
2023-04-11T05:22:03.231Z,59.31
2023-04-11T05:23:05.541Z,59.19
2023-04-11T05:24:08.160Z,59.23
2023-04-11T05:25:10.158Z,58.88
2023-04-11T05:26:14.280Z,58.11
2023-04-11T05:27:16.294Z,57.00
2023-04-11T05:28:18.150Z,57.08
2023-04-11T05:29:20.998Z,56.53
2023-04-11T05:30:23.118Z,56.23
2023-04-11T05:31:25.085Z,55.82
2023-04-11T05:32:26.979Z,55.45
2023-04-11T05:33:29.551Z,55.08
2023-04-11T05:34:31.964Z,55.20
2023-04-11T05:35:34.678Z,55.04
2023-04-11T05:36:36.972Z,54.22
2023-04-11T05:37:39.385Z,54.41
2023-04-11T05:38:42.958Z,54.72
2023-04-11T05:39:45.111Z,54.23
2023-04-11T05:40:47.457Z,54.25
2023-04-11T05:41:50.515Z,54.35
2023-04-11T05:42:52.382Z,54.44
2023-04-11T05:43:54.551Z,53.94
2023-04-11T05:44:56.874Z,53.60
2023-04-11T05:46:00.536Z,53.39
2023-04-11T05:47:02.592Z,53.21
2023-04-11T05:48:08.075Z,53.16
2023-04-11T05:49:10.163Z,53.58
2023-04-11T05:50:14.355Z,53.53
2023-04-11T05:51:16.513Z,53.52
2023-04-11T05:52:18.376Z,53.45
2023-04-11T05:53:20.250Z,53.74
2023-04-11T05:54:33.132Z,53.74
2023-04-11T05:55:36.067Z,53.88
2023-04-11T05:56:38.061Z,53.63
2023-04-11T05:57:39.956Z,53.88
2023-04-11T05:58:42.741Z,53.46
2023-04-11T05:59:46.050Z,53.38
2023-04-11T06:00:48.054Z,53.59
2023-04-11T06:01:50.084Z,53.17
2023-04-11T06:02:52.260Z,52.87
2023-04-11T06:03:54.396Z,52.62
2023-04-11T06:04:57.042Z,52.45
2023-04-11T06:05:59.638Z,52.25
2023-04-11T06:07:01.679Z,52.25
2023-04-11T06:08:06.378Z,51.55
2023-04-11T06:09:09.141Z,51.44
2023-04-11T06:10:11.906Z,51.18
2023-04-11T06:11:13.858Z,51.10
2023-04-11T06:12:15.804Z,51.28
2023-04-11T06:13:17.687Z,51.23
2023-04-11T06:14:19.564Z,50.82
2023-04-11T06:15:23.703Z,50.79
2023-04-11T06:16:25.910Z,50.30
2023-04-11T06:17:27.983Z,50.75
2023-04-11T06:18:29.942Z,51.06
2023-04-11T06:19:32.997Z,50.47
2023-04-11T06:20:35.147Z,49.98
2023-04-11T06:21:37.161Z,50.05
2023-04-11T06:22:39.149Z,49.74
2023-04-11T06:23:41.234Z,49.38
2023-04-11T06:24:43.405Z,49.39
2023-04-11T06:25:45.303Z,49.56
2023-04-11T06:26:47.355Z,49.43
2023-04-11T06:27:49.869Z,49.27
2023-04-11T06:28:51.976Z,48.94
2023-04-11T06:29:53.951Z,48.95
2023-04-11T06:30:56.254Z,49.00
2023-04-11T06:31:58.547Z,49.32
2023-04-11T06:33:00.577Z,49.42
2023-04-11T06:34:02.546Z,48.98
2023-04-11T06:35:05.543Z,48.75
2023-04-11T06:36:09.029Z,48.23
2023-04-11T06:37:11.084Z,48.43
2023-04-11T06:38:12.984Z,48.03
2023-04-11T06:39:17.796Z,47.88
2023-04-11T06:40:20.112Z,48.16
2023-04-11T06:41:22.109Z,48.30
2023-04-11T06:42:23.978Z,47.94
2023-04-11T06:43:26.586Z,47.89
2023-04-11T06:44:29.340Z,48.02
2023-04-11T06:45:31.372Z,48.08
2023-04-11T06:46:34.013Z,48.27
2023-04-11T06:47:36.368Z,48.63
2023-04-11T06:48:38.377Z,47.92
2023-04-11T06:49:40.825Z,47.65
2023-04-11T06:50:43.220Z,47.09
2023-04-11T06:51:45.845Z,46.70
2023-04-11T06:52:47.914Z,46.77
2023-04-11T06:53:49.832Z,46.92
2023-04-11T06:54:51.715Z,47.17
2023-04-11T06:55:53.668Z,47.42
2023-04-11T06:56:55.860Z,47.21
2023-04-11T06:57:58.755Z,47.09
2023-04-11T06:59:01.600Z,47.36
2023-04-11T07:00:05.057Z,46.90
2023-04-11T07:01:07.563Z,46.35
2023-04-11T07:02:10.005Z,46.51
2023-04-11T07:03:12.439Z,46.60
2023-04-11T07:04:15.345Z,46.62
2023-04-11T07:05:19.172Z,46.49
2023-04-11T07:06:21.715Z,46.77
2023-04-11T07:07:24.107Z,47.14
2023-04-11T07:08:26.562Z,46.55
2023-04-11T07:09:28.550Z,46.63
2023-04-11T07:10:31.151Z,46.88
2023-04-11T07:11:33.072Z,47.19
2023-04-11T07:12:34.972Z,47.19
2023-04-11T07:13:37.562Z,47.50
2023-04-11T07:14:39.801Z,47.42
2023-04-11T07:15:41.716Z,46.75
2023-04-11T07:16:44.429Z,46.68
2023-04-11T07:17:47.820Z,46.89
2023-04-11T07:18:49.800Z,46.74
2023-04-11T07:19:51.788Z,46.88
2023-04-11T07:21:14.296Z,46.69
2023-04-11T07:22:16.230Z,46.73
2023-04-11T07:23:18.205Z,46.66
2023-04-11T07:24:20.072Z,46.16
2023-04-11T07:25:27.015Z,45.74
2023-04-11T07:26:29.095Z,45.72
2023-04-11T07:27:31.085Z,45.11
2023-04-11T07:28:33.043Z,44.99
2023-04-11T07:29:35.007Z,45.48
2023-04-11T07:30:37.104Z,45.27
2023-04-11T07:31:39.128Z,45.14
2023-04-11T07:32:41.714Z,45.13
2023-04-11T07:33:43.657Z,44.87
2023-04-11T07:34:45.509Z,44.37
2023-04-11T07:35:47.509Z,45.04
2023-04-11T07:36:49.573Z,44.87
2023-04-11T07:37:52.652Z,45.26
2023-04-11T07:38:54.527Z,45.36
2023-04-11T07:39:56.408Z,45.26
2023-04-11T07:41:00.818Z,45.53
2023-04-11T07:42:02.769Z,44.94
2023-04-11T07:43:04.728Z,44.93
2023-04-11T07:44:06.726Z,44.74
2023-04-11T07:45:10.037Z,44.92
2023-04-11T07:46:12.599Z,44.46
2023-04-11T07:47:15.877Z,44.92
2023-04-11T07:48:17.836Z,44.69
2023-04-11T07:49:19.782Z,44.84
2023-04-11T07:50:21.849Z,44.56
2023-04-11T07:51:23.712Z,44.78
2023-04-11T07:52:25.687Z,44.78
2023-04-11T07:53:27.648Z,44.97
2023-04-11T07:54:29.640Z,45.26
2023-04-11T07:55:31.503Z,44.67
2023-04-11T07:56:33.603Z,44.92
2023-04-11T07:57:35.603Z,44.69
2023-04-11T07:58:37.522Z,44.96
2023-04-11T07:59:40.233Z,44.89
2023-04-11T08:00:42.498Z,44.91
2023-04-11T08:01:44.531Z,44.49
2023-04-11T08:02:46.620Z,44.77
2023-04-11T08:03:49.094Z,44.80
2023-04-11T08:04:53.578Z,44.87
2023-04-11T08:05:55.674Z,45.33
2023-04-11T08:06:57.638Z,45.26
2023-04-11T08:08:00.278Z,45.74
2023-04-11T08:09:02.171Z,45.50
2023-04-11T08:10:07.776Z,45.32
2023-04-11T08:11:09.776Z,45.61
2023-04-11T08:12:11.706Z,45.29
2023-04-11T08:13:13.564Z,45.09
2023-04-11T08:14:15.428Z,45.13
2023-04-11T08:15:18.320Z,45.07
2023-04-11T08:16:20.324Z,45.24
2023-04-11T08:17:28.111Z,45.43
2023-04-11T08:18:26.168Z,45.21
2023-04-11T08:19:28.319Z,45.90
2023-04-11T08:20:31.347Z,45.76
2023-04-11T08:21:33.253Z,45.35
2023-04-11T08:22:35.158Z,45.33
2023-04-11T08:23:39.008Z,45.29
2023-04-11T08:24:41.014Z,45.66
2023-04-11T08:25:42.999Z,45.58
2023-04-11T08:26:45.123Z,45.50
2023-04-11T08:27:49.591Z,45.54
2023-04-11T08:28:51.606Z,45.94
2023-04-11T08:29:53.549Z,46.00
2023-04-11T08:30:55.870Z,46.02
2023-04-11T08:31:58.058Z,46.41
2023-04-11T08:32:59.993Z,46.50
2023-04-11T08:34:03.867Z,46.35
2023-04-11T08:35:06.844Z,46.01
2023-04-11T08:36:10.838Z,45.91
2023-04-11T08:37:13.042Z,45.87
2023-04-11T08:38:14.974Z,46.07
2023-04-11T08:39:16.847Z,46.16
2023-04-11T08:40:19.121Z,46.23
2023-04-11T08:41:21.007Z,46.48
2023-04-11T08:42:26.004Z,46.33
2023-04-11T08:43:28.147Z,46.37
2023-04-11T08:44:30.530Z,46.25
2023-04-11T08:45:32.787Z,45.79
2023-04-11T08:46:39.038Z,45.29
2023-04-11T08:47:43.925Z,45.60
2023-04-11T08:48:45.252Z,45.69
2023-04-11T08:49:47.412Z,45.77
2023-04-11T08:50:49.478Z,45.59
2023-04-11T08:51:53.444Z,45.26
2023-04-11T08:52:58.180Z,45.26
2023-04-11T08:54:03.938Z,45.09
2023-04-11T08:55:06.549Z,45.08
2023-04-11T08:56:14.466Z,44.91
2023-04-11T08:57:27.312Z,45.34
2023-04-11T08:58:29.234Z,45.85
2023-04-11T08:59:32.949Z,45.53
2023-04-11T09:00:35.048Z,45.43
2023-04-11T09:01:37.002Z,45.24
2023-04-11T09:04:08.020Z,45.29
2023-04-11T09:05:13.669Z,45.58
2023-04-11T09:06:16.171Z,45.78
2023-04-11T09:07:18.173Z,45.96
2023-04-11T09:08:20.056Z,46.02
2023-04-11T09:09:29.223Z,46.10
2023-04-11T09:10:32.080Z,46.02
2023-04-11T09:11:53.796Z,45.61
2023-04-11T09:12:56.689Z,45.54
2023-04-11T09:14:09.768Z,45.75
2023-04-11T09:15:20.923Z,45.63
2023-04-11T09:16:23.193Z,46.12
2023-04-11T09:17:28.989Z,46.88
2023-04-11T09:18:34.559Z,46.70
2023-04-11T09:19:36.548Z,46.29
2023-04-11T09:20:38.539Z,45.92
2023-04-11T09:21:48.572Z,45.78
2023-04-11T09:22:50.957Z,45.47
2023-04-11T09:23:52.819Z,45.82
2023-04-11T09:25:02.228Z,45.51
2023-04-11T09:26:06.487Z,45.58
2023-04-11T09:27:16.754Z,45.37
2023-04-11T09:28:19.431Z,46.02
2023-04-11T09:29:38.638Z,46.40
2023-04-11T09:30:44.513Z,46.31
2023-04-11T09:31:48.445Z,47.59
2023-04-11T09:32:53.032Z,47.12
2023-04-11T09:33:58.150Z,47.31
2023-04-11T09:35:08.011Z,47.58
2023-04-11T09:36:19.343Z,47.23
2023-04-11T09:37:21.371Z,47.09
2023-04-11T09:38:30.043Z,47.31
2023-04-11T09:39:32.034Z,47.61
2023-04-11T09:40:42.506Z,47.97
2023-04-11T09:41:44.887Z,47.94
2023-04-11T09:42:48.656Z,48.67
2023-04-11T09:45:05.598Z,48.18
2023-04-11T09:46:09.472Z,47.69
2023-04-11T09:47:11.592Z,47.25
2023-04-11T09:48:13.526Z,47.27
2023-04-11T09:49:15.564Z,47.73
2023-04-11T09:50:18.359Z,48.38
2023-04-11T09:51:34.413Z,48.62
2023-04-11T09:52:26.479Z,48.65
2023-04-11T09:53:29.478Z,48.46
2023-04-11T09:54:32.840Z,48.07
2023-04-11T09:55:37.198Z,48.27
2023-04-11T09:56:39.798Z,48.62
2023-04-11T09:57:47.526Z,49.05
2023-04-11T09:58:49.914Z,48.72
2023-04-11T09:59:53.431Z,48.87
2023-04-11T10:00:55.913Z,49.63
2023-04-11T10:01:57.878Z,48.94
2023-04-11T10:03:00.732Z,48.73
2023-04-11T10:04:02.847Z,48.38
2023-04-11T10:05:06.461Z,48.55
2023-04-11T10:06:15.636Z,48.38
2023-04-11T10:07:19.024Z,48.60
2023-04-11T10:08:27.808Z,48.49
2023-04-11T10:09:31.638Z,48.49
2023-04-11T10:10:35.363Z,48.66
2023-04-11T10:11:42.735Z,48.92
2023-04-11T10:12:45.955Z,48.80
2023-04-11T10:13:47.876Z,48.71
2023-04-11T10:14:49.741Z,48.67
2023-04-11T10:16:12.354Z,48.70
2023-04-11T10:17:22.855Z,48.66
2023-04-11T10:18:23.048Z,49.00
2023-04-11T10:19:25.104Z,49.15
2023-04-11T10:20:36.214Z,49.01
2023-04-11T10:21:38.787Z,48.78
2023-04-11T10:22:44.456Z,48.90
2023-04-11T10:24:09.985Z,48.51
2023-04-11T10:25:22.118Z,48.53
2023-04-11T10:26:46.222Z,48.92
2023-04-11T10:27:50.462Z,48.53
2023-04-11T10:28:52.470Z,48.85
2023-04-11T10:29:54.346Z,49.69
2023-04-11T10:31:06.395Z,48.85
2023-04-11T10:32:13.939Z,49.21
2023-04-11T10:33:17.448Z,49.73
2023-04-11T10:34:20.872Z,49.38
2023-04-11T10:35:24.256Z,48.60
2023-04-11T10:36:26.237Z,48.45
2023-04-11T10:37:33.672Z,48.09
2023-04-11T10:38:44.914Z,48.34
2023-04-11T10:39:51.769Z,48.33
2023-04-11T10:41:20.494Z,48.29
2023-04-11T10:42:30.308Z,48.24
2023-04-11T10:43:33.218Z,48.36
2023-04-11T10:44:36.004Z,47.89
2023-04-11T10:45:38.043Z,47.51
2023-04-11T10:46:46.008Z,47.45
2023-04-11T10:47:57.682Z,47.74
2023-04-11T10:49:04.304Z,47.42
2023-04-11T10:50:28.807Z,47.33
2023-04-11T10:51:32.934Z,47.78
2023-04-11T10:52:37.264Z,47.86
2023-04-11T10:53:39.547Z,48.11
2023-04-11T10:54:41.783Z,48.09
2023-04-11T10:55:47.081Z,47.45
2023-04-11T10:56:54.142Z,47.38
2023-04-11T10:58:14.662Z,47.58
2023-04-11T10:59:35.683Z,47.97
2023-04-11T11:00:51.157Z,48.18
2023-04-11T11:01:59.677Z,48.31
2023-04-11T11:03:02.427Z,48.67
2023-04-11T11:04:05.185Z,48.95
2023-04-11T11:05:15.022Z,50.03
2023-04-11T11:06:17.458Z,49.52
2023-04-11T11:07:19.326Z,49.25
2023-04-11T11:08:33.053Z,48.98
2023-04-11T11:09:35.061Z,47.60
2023-04-11T11:10:40.036Z,47.80
2023-04-11T11:11:42.075Z,47.67
2023-04-11T11:12:53.739Z,47.83
2023-04-11T11:13:56.194Z,48.12
2023-04-11T11:15:00.447Z,47.89
2023-04-11T11:16:02.689Z,48.11
2023-04-11T11:17:06.486Z,48.36
2023-04-11T11:18:09.635Z,48.24
2023-04-11T11:19:13.517Z,48.41
2023-04-11T11:20:17.527Z,48.55
2023-04-11T11:21:27.902Z,48.08
2023-04-11T11:22:26.175Z,48.32
2023-04-11T11:23:28.310Z,48.41
2023-04-11T11:24:30.618Z,48.34
2023-04-11T11:25:33.954Z,47.84
2023-04-11T11:26:41.439Z,47.83
2023-04-11T11:27:43.368Z,48.05
2023-04-11T11:28:46.638Z,48.24
2023-04-11T11:29:48.819Z,48.61
2023-04-11T11:30:54.975Z,48.67
2023-04-11T11:31:56.885Z,48.51
2023-04-11T11:32:59.489Z,48.57
2023-04-11T11:34:18.455Z,48.70
2023-04-11T11:35:15.498Z,49.21
2023-04-11T11:36:17.832Z,49.31
2023-04-11T11:37:20.175Z,49.11
2023-04-11T11:38:27.699Z,49.01
2023-04-11T11:39:32.112Z,49.14
2023-04-11T11:40:34.385Z,49.51
2023-04-11T11:41:38.448Z,49.84
2023-04-11T11:42:40.888Z,50.01
2023-04-11T11:43:42.750Z,50.16
2023-04-11T11:44:44.635Z,49.41
2023-04-11T11:45:47.117Z,49.53
2023-04-11T11:47:06.995Z,49.60
2023-04-11T11:48:21.618Z,49.51
2023-04-11T11:49:23.901Z,49.86
2023-04-11T11:51:40.334Z,49.83
2023-04-11T11:52:42.343Z,49.48
2023-04-11T11:53:46.216Z,48.09
2023-04-11T11:54:48.601Z,46.00
2023-04-11T11:55:50.873Z,46.28
2023-04-11T11:56:52.985Z,46.36
2023-04-11T11:58:00.685Z,46.26
2023-04-11T11:59:03.416Z,46.77
2023-04-11T12:00:07.214Z,46.23
2023-04-11T12:02:16.600Z,46.58
2023-04-11T12:03:24.446Z,46.69
2023-04-11T12:04:26.858Z,46.45
2023-04-11T12:05:31.198Z,46.88
2023-04-11T12:06:33.522Z,47.08
2023-04-11T12:07:41.604Z,46.85
2023-04-11T12:08:45.757Z,46.70
2023-04-11T12:09:48.741Z,46.40
2023-04-11T12:10:51.570Z,46.49
2023-04-11T12:11:54.039Z,46.92
2023-04-11T12:12:55.918Z,45.84
2023-04-11T12:13:58.166Z,45.82
2023-04-11T12:15:01.718Z,45.82
2023-04-11T12:16:04.652Z,46.63
2023-04-11T12:17:09.243Z,46.28
2023-04-11T12:18:11.523Z,46.07
2023-04-11T12:19:13.704Z,45.64
2023-04-11T12:20:16.191Z,45.76
2023-04-11T12:21:18.046Z,45.49
2023-04-11T12:22:19.913Z,46.32
2023-04-11T12:23:22.912Z,46.18
2023-04-11T12:24:24.886Z,46.31
2023-04-11T12:25:27.251Z,46.33
2023-04-11T12:26:29.225Z,46.01
2023-04-11T12:27:31.320Z,47.00
2023-04-11T12:28:33.245Z,46.86
2023-04-11T12:29:35.108Z,46.98
2023-04-11T12:30:37.913Z,47.26
2023-04-11T12:31:39.905Z,46.90
2023-04-11T12:32:43.282Z,47.67
2023-04-11T12:33:45.419Z,47.80
2023-04-11T12:34:47.359Z,47.42
2023-04-11T12:35:49.459Z,47.31
2023-04-11T12:36:51.549Z,47.70
2023-04-11T12:37:53.409Z,48.18
2023-04-11T12:38:55.399Z,48.06
2023-04-11T12:39:57.745Z,47.93
2023-04-11T12:41:19.876Z,47.55
2023-04-11T12:42:05.375Z,47.49
2023-04-11T12:43:07.342Z,47.54
2023-04-11T12:44:09.200Z,47.40
2023-04-11T12:45:12.528Z,47.76
2023-04-11T12:46:14.777Z,48.72
2023-04-11T12:47:17.080Z,48.23
2023-04-11T12:48:19.070Z,47.91
2023-04-11T12:49:20.930Z,48.00
2023-04-11T12:50:23.068Z,47.97
2023-04-11T12:51:25.032Z,47.97
2023-04-11T12:52:28.676Z,48.00
2023-04-11T12:53:30.709Z,48.23
2023-04-11T12:54:32.988Z,48.35
2023-04-11T12:55:35.021Z,48.62
2023-04-11T12:56:38.520Z,48.72
2023-04-11T12:57:40.451Z,48.80
2023-04-11T12:58:42.339Z,49.13
2023-04-11T12:59:44.598Z,49.02
2023-04-11T13:00:46.679Z,49.02
2023-04-11T13:01:48.618Z,48.81
2023-04-11T13:02:50.860Z,48.65
2023-04-11T13:03:53.199Z,47.87
2023-04-11T13:04:55.399Z,46.43
2023-04-11T13:05:57.545Z,46.15
2023-04-11T13:06:59.618Z,46.15
2023-04-11T13:08:01.628Z,45.92
2023-04-11T13:09:05.833Z,46.07
2023-04-11T13:10:09.471Z,45.75
2023-04-11T13:11:11.341Z,46.02
2023-04-11T13:12:13.679Z,46.04
2023-04-11T13:13:18.547Z,46.42
2023-04-11T13:14:19.491Z,46.63
2023-04-11T13:15:21.654Z,46.53
2023-04-11T13:16:23.898Z,45.95
2023-04-11T13:17:25.832Z,45.80
2023-04-11T13:18:27.816Z,45.53
2023-04-11T13:19:29.731Z,45.58
2023-04-11T13:20:31.722Z,45.56
2023-04-11T13:21:33.745Z,45.94
2023-04-11T13:22:37.120Z,45.76
2023-04-11T13:23:39.171Z,45.95
2023-04-11T13:24:41.323Z,44.47
2023-04-11T13:25:43.334Z,45.24
2023-04-11T13:26:45.376Z,45.37
2023-04-11T13:27:47.268Z,45.00
2023-04-11T13:28:49.278Z,44.86
2023-04-11T13:29:51.306Z,45.02
2023-04-11T13:30:55.055Z,44.83
2023-04-11T13:31:57.005Z,44.93
2023-04-11T13:32:59.257Z,44.95
2023-04-11T13:34:01.944Z,44.92
2023-04-11T13:35:04.450Z,44.98
2023-04-11T13:36:09.491Z,44.61
2023-04-11T13:37:11.400Z,44.67
2023-04-11T13:38:13.375Z,44.40
2023-04-11T13:39:15.329Z,44.51
2023-04-11T13:40:17.468Z,44.30